Time;durP1;ratioP1;P1;durP2;ratioP2;P2;SDS_P1;SDS_P2;PMS_P1;PMS_P2;Temp;Humidity;BMP_temperature;BMP_pressure;BME280_temperature;BME280_humidity;BME280_pressure;Samples;Min_cycle;Max_cycle;Signal;HPM_P1;HPM_P2
2022/06/18 00:01:19;;;;;;;3.63;2.72;;;21.40;56.90;;;;;;4963634;28;20332;-67
2022/06/18 00:03:45;;;;;;;2.80;2.60;;;21.30;57.10;;;;;;4959575;28;20301;-67
2022/06/18 00:06:11;;;;;;;3.17;2.63;;;21.30;56.70;;;;;;4967737;28;20233;-67
2022/06/18 00:08:37;;;;;;;2.83;2.63;;;21.30;56.00;;;;;;4966344;28;20285;-66
2022/06/18 00:13:49;;;;;;;2.70;2.20;;;21.30;56.60;;;;;;4968400;28;20321;-67
2022/06/18 00:16:19;;;;;;;3.83;2.80;;;21.20;56.30;;;;;;4967113;28;20725;-67
2022/06/18 00:18:44;;;;;;;5.90;3.53;;;21.20;56.70;;;;;;4967012;28;20225;-67
2022/06/18 00:21:16;;;;;;;7.00;3.00;;;21.20;56.60;;;;;;4967833;28;20681;-67
2022/06/18 00:23:42;;;;;;;4.13;2.80;;;21.10;56.30;;;;;;4965679;28;20678;-68
2022/06/18 00:26:10;;;;;;;2.43;2.23;;;21.10;56.00;;;;;;4949816;28;20202;-68
2022/06/18 00:28:35;;;;;;;4.73;2.80;;;21.10;56.40;;;;;;4965871;28;20210;-67
2022/06/18 00:31:01;;;;;;;10.37;7.43;;;21.10;56.90;;;;;;4967726;28;20216;-68
2022/06/18 00:33:27;;;;;;;3.30;3.00;;;21.00;56.60;;;;;;4965571;28;20569;-67
2022/06/18 00:35:57;;;;;;;3.50;3.20;;;20.90;56.30;;;;;;4967110;28;20628;-68
2022/06/18 00:38:30;;;;;;;3.33;3.03;;;20.90;57.50;;;;;;4965355;28;20773;-68
2022/06/18 00:40:57;;;;;;;4.87;3.10;;;20.90;57.00;;;;;;4967227;28;20832;-67
2022/06/18 00:43:29;;;;;;;8.77;3.37;;;20.90;57.70;;;;;;4965357;28;20204;-66
2022/06/18 00:45:59;;;;;;;3.30;3.00;;;20.80;58.00;;;;;;4947911;29;20214;-67
2022/06/18 00:48:32;;;;;;;3.53;3.23;;;20.80;57.50;;;;;;4965302;28;20237;-67
2022/06/18 00:51:08;;;;;;;5.57;3.77;;;20.70;57.00;;;;;;4952310;28;20197;-66
2022/06/18 00:53:44;;;;;;;5.07;3.50;;;20.70;57.40;;;;;;4946490;28;20285;-66
2022/06/18 00:56:17;;;;;;;6.10;3.43;;;20.70;58.00;;;;;;4966168;28;20459;-67
2022/06/18 00:58:48;;;;;;;3.90;3.23;;;20.60;57.90;;;;;;4964965;28;20201;-66
2022/06/18 01:01:21;;;;;;;4.13;3.07;;;20.60;58.40;;;;;;4957872;28;20237;-66
2022/06/18 01:03:47;;;;;;;3.40;3.10;;;20.60;57.90;;;;;;4954640;28;20544;-66
2022/06/18 01:06:23;;;;;;;4.20;3.07;;;20.50;58.00;;;;;;4966645;28;20200;-65
2022/06/18 01:08:58;;;;;;;3.60;3.30;;;20.50;58.60;;;;;;4958127;28;20300;-66
2022/06/18 01:11:29;;;;;;;5.17;3.20;;;20.50;57.90;;;;;;4961356;28;20217;-67
2022/06/18 01:13:57;;;;;;;3.10;2.90;;;20.50;57.80;;;;;;4966843;28;20197;-66
2022/06/18 01:16:24;;;;;;;6.93;3.17;;;20.50;58.10;;;;;;4964742;28;20220;-65
2022/06/18 01:18:51;;;;;;;3.40;3.10;;;20.40;58.20;;;;;;4966836;28;20209;-66
2022/06/18 01:21:47;;;;;;;4.30;3.60;;;20.40;59.00;;;;;;4966601;28;20236;-66
2022/06/18 01:24:22;;;;;;;3.10;2.80;;;20.40;59.00;;;;;;4961428;28;20232;-67
2022/06/18 01:26:52;;;;;;;3.10;2.90;;;20.30;59.00;;;;;;4964068;28;20216;-67
2022/06/18 01:29:18;;;;;;;2.87;2.63;;;20.30;59.30;;;;;;4966988;28;20200;-67
2022/06/18 01:31:45;;;;;;;3.10;2.83;;;20.30;59.70;;;;;;4964457;28;20676;-67
2022/06/18 01:34:11;;;;;;;3.87;3.50;;;20.20;59.50;;;;;;4966582;28;20208;-67
2022/06/18 01:36:37;;;;;;;3.43;3.13;;;20.20;59.10;;;;;;4964522;28;20414;-67
2022/06/18 01:39:13;;;;;;;4.60;3.00;;;20.10;59.30;;;;;;4966832;28;20181;-67
2022/06/18 01:41:51;;;;;;;4.63;3.13;;;20.10;59.70;;;;;;4964329;28;20771;-67
2022/06/18 01:44:23;;;;;;;3.40;3.10;;;20.10;59.60;;;;;;4966676;28;20199;-66
2022/06/18 01:46:52;;;;;;;5.10;3.23;;;20.10;59.20;;;;;;4960864;28;20222;-67
2022/06/18 01:49:25;;;;;;;2.83;2.60;;;20.00;60.30;;;;;;4966705;28;20205;-66
2022/06/18 01:51:55;;;;;;;2.90;2.70;;;20.00;59.70;;;;;;4949590;28;20217;-67
2022/06/18 01:54:25;;;;;;;4.97;3.33;;;20.00;60.40;;;;;;4966502;28;20284;-67
2022/06/18 01:56:56;;;;;;;6.00;2.90;;;19.90;60.00;;;;;;4964270;28;20751;-68
2022/06/18 01:59:32;;;;;;;3.00;2.80;;;19.90;59.60;;;;;;4966197;28;20648;-67
2022/06/18 02:01:59;;;;;;;3.50;2.63;;;19.90;59.60;;;;;;4963877;28;20240;-67
2022/06/18 02:04:27;;;;;;;3.73;2.70;;;19.90;59.40;;;;;;4966436;28;20670;-67
2022/06/18 02:06:53;;;;;;;3.27;2.80;;;19.80;59.70;;;;;;4964356;28;20562;-67
2022/06/18 02:09:25;;;;;;;7.40;3.30;;;19.80;60.40;;;;;;4966173;28;20736;-67
2022/06/18 02:11:51;;;;;;;3.27;2.97;;;19.80;60.10;;;;;;4964334;28;20217;-67
2022/06/18 02:14:19;;;;;;;3.17;2.40;;;19.80;60.10;;;;;;4966191;28;20283;-67
2022/06/18 02:16:46;;;;;;;3.27;2.67;;;19.70;60.20;;;;;;4960635;28;20249;-66
2022/06/18 02:19:12;;;;;;;3.50;2.70;;;19.70;60.10;;;;;;4966269;28;20667;-67
2022/06/18 02:21:43;;;;;;;4.60;3.03;;;19.70;60.20;;;;;;4965738;28;20669;-67
2022/06/18 02:24:09;;;;;;;4.07;3.33;;;19.70;60.00;;;;;;4970311;28;20178;-66
2022/06/18 02:26:36;;;;;;;3.60;2.67;;;19.70;60.30;;;;;;4968261;28;20197;-67
2022/06/18 02:29:04;;;;;;;5.20;3.73;;;19.60;60.30;;;;;;4970030;28;20197;-67
2022/06/18 02:31:34;;;;;;;3.20;2.50;;;19.70;60.60;;;;;;4969189;28;20536;-66
2022/06/18 02:34:12;;;;;;;4.33;3.00;;;19.60;60.70;;;;;;4967835;28;20652;-67
2022/06/18 02:36:40;;;;;;;3.93;2.43;;;19.60;60.60;;;;;;4951174;28;20268;-66
2022/06/18 02:39:40;;;;;;;4.80;2.57;;;19.60;61.20;;;;;;4969363;28;20189;-66
2022/06/18 02:42:12;;;;;;;2.47;2.27;;;19.50;61.40;;;;;;4962782;28;20204;-68
2022/06/18 02:44:40;;;;;;;6.87;2.60;;;19.50;61.70;;;;;;4969779;28;20197;-67
2022/06/18 02:47:06;;;;;;;3.87;3.57;;;19.50;61.90;;;;;;4967445;28;20343;-67
2022/06/18 02:49:40;;;;;;;3.17;2.83;;;19.40;62.20;;;;;;4969622;28;20225;-67
2022/06/18 02:52:06;;;;;;;2.43;2.30;;;19.40;62.40;;;;;;4954194;28;20202;-67
2022/06/18 02:54:33;;;;;;;2.83;2.60;;;19.40;63.80;;;;;;4969487;28;20207;-67
2022/06/18 02:57:03;;;;;;;3.37;2.70;;;19.30;63.30;;;;;;4967385;28;20256;-67
2022/06/18 02:59:28;;;;;;;2.60;2.40;;;19.20;63.60;;;;;;4969260;28;20182;-67
2022/06/18 03:01:54;;;;;;;2.50;2.30;;;19.20;62.70;;;;;;4967398;28;20327;-67
2022/06/18 03:04:19;;;;;;;2.53;2.37;;;19.20;63.00;;;;;;4969444;28;20663;-66
2022/06/18 03:06:45;;;;;;;2.70;2.50;;;19.20;63.50;;;;;;4966919;28;20204;-67
2022/06/18 03:09:10;;;;;;;5.57;2.57;;;19.20;63.60;;;;;;4969131;28;20885;-67
2022/06/18 03:14:21;;;;;;;2.90;2.60;;;19.20;63.30;;;;;;4969301;28;20589;-67
2022/06/18 03:16:47;;;;;;;3.33;3.03;;;19.20;63.80;;;;;;4965680;28;20304;-66
2022/06/18 03:19:44;;;;;;;3.73;2.70;;;19.10;63.50;;;;;;4968780;28;20244;-65
2022/06/18 03:22:16;;;;;;;3.87;2.50;;;19.10;64.00;;;;;;4966833;28;20737;-70
2022/06/18 03:24:42;;;;;;;6.23;3.00;;;19.10;63.80;;;;;;4969056;28;20211;-66
2022/06/18 03:27:08;;;;;;;9.47;2.83;;;19.10;63.80;;;;;;4966400;28;20664;-66
2022/06/18 03:29:34;;;;;;;4.53;3.33;;;19.20;63.80;;;;;;4968805;28;20253;-67
2022/06/18 03:32:01;;;;;;;3.83;2.67;;;19.20;65.50;;;;;;4966009;28;20216;-66
2022/06/18 03:34:27;;;;;;;3.23;2.93;;;19.20;64.40;;;;;;4968757;28;20193;-66
2022/06/18 03:36:53;;;;;;;2.90;2.60;;;19.20;64.30;;;;;;4966756;28;20219;-66
2022/06/18 03:39:18;;;;;;;3.30;3.00;;;19.10;64.30;;;;;;4968636;28;20668;-66
2022/06/18 03:41:44;;;;;;;3.87;3.17;;;19.10;63.90;;;;;;4966584;28;20292;-68
2022/06/18 03:44:09;;;;;;;2.83;2.63;;;19.10;64.00;;;;;;4968524;28;20181;-67
2022/06/18 03:46:39;;;;;;;3.77;3.03;;;19.10;64.60;;;;;;4966513;28;20192;-67
2022/06/18 03:49:06;;;;;;;3.70;2.97;;;19.10;64.90;;;;;;4968295;28;20204;-66
2022/06/18 03:51:33;;;;;;;4.20;2.80;;;19.10;64.50;;;;;;4966452;28;20211;-67
2022/06/18 03:53:59;;;;;;;5.93;2.90;;;19.10;64.60;;;;;;4968425;28;20186;-66
2022/06/18 03:56:29;;;;;;;2.60;2.07;;;19.10;65.00;;;;;;4965870;28;20212;-65
2022/06/18 03:58:55;;;;;;;2.40;2.30;;;19.10;65.20;;;;;;4968150;28;20185;-65
2022/06/18 04:01:28;;;;;;;2.57;2.37;;;19.10;65.70;;;;;;4966735;28;20236;-65
2022/06/18 04:03:56;;;;;;;2.10;2.00;;;19.10;66.00;;;;;;4968359;28;20188;-59
2022/06/18 04:06:23;;;;;;;3.57;2.40;;;19.10;65.70;;;;;;4948784;28;20201;-62
2022/06/18 04:08:49;;;;;;;2.80;2.60;;;19.10;66.30;;;;;;4950318;28;20194;-60
2022/06/18 04:11:15;;;;;;;3.77;2.30;;;19.10;66.00;;;;;;4968072;28;20211;-60
2022/06/18 04:13:40;;;;;;;5.33;2.60;;;19.10;66.50;;;;;;4966261;28;20276;-59
2022/06/18 04:16:07;;;;;;;2.30;2.20;;;19.10;66.50;;;;;;4967377;28;20267;-59
2022/06/18 04:18:33;;;;;;;2.43;1.80;;;19.20;65.60;;;;;;4968512;28;20212;-59
2022/06/18 04:20:59;;;;;;;1.70;1.60;;;19.20;65.60;;;;;;4969642;28;20196;-60
2022/06/18 04:23:25;;;;;;;2.20;2.00;;;19.20;65.50;;;;;;4969317;28;20554;-60
2022/06/18 04:25:51;;;;;;;2.20;2.00;;;19.30;66.00;;;;;;4977020;28;20637;-61
2022/06/18 04:28:18;;;;;;;2.20;1.73;;;19.30;66.00;;;;;;4975945;28;20292;-60
2022/06/18 04:30:45;;;;;;;2.40;2.20;;;19.30;65.70;;;;;;4958585;28;20212;-61
2022/06/18 04:33:14;;;;;;;2.20;2.03;;;19.30;65.90;;;;;;4974654;28;20208;-63
2022/06/18 04:35:43;;;;;;;2.43;2.10;;;19.40;65.70;;;;;;4971562;28;20747;-65
2022/06/18 04:38:11;;;;;;;2.77;2.53;;;19.40;65.00;;;;;;4965458;28;20292;-64
2022/06/18 04:40:36;;;;;;;2.17;1.97;;;19.50;65.20;;;;;;4967510;28;20614;-64
2022/06/18 04:43:05;;;;;;;3.13;1.73;;;19.50;65.00;;;;;;4968805;28;20201;-63
2022/06/18 04:45:31;;;;;;;3.53;3.00;;;19.60;64.90;;;;;;4969793;28;20273;-64
2022/06/18 04:47:57;;;;;;;2.43;2.07;;;19.60;65.30;;;;;;4974902;28;20278;-64
2022/06/18 04:50:29;;;;;;;2.80;2.60;;;19.70;65.20;;;;;;4976519;28;20280;-64
2022/06/18 04:52:55;;;;;;;2.57;1.90;;;19.70;65.20;;;;;;4972372;28;20200;-64
2022/06/18 04:55:21;;;;;;;3.53;1.70;;;19.80;65.50;;;;;;4977119;28;20694;-65
2022/06/18 04:57:46;;;;;;;4.37;2.40;;;19.80;64.90;;;;;;4959015;28;20343;-64
2022/06/18 05:00:13;;;;;;;1.93;1.83;;;19.90;64.20;;;;;;4966658;28;20316;-64
2022/06/18 05:02:39;;;;;;;4.43;2.47;;;20.00;63.90;;;;;;4965308;28;20202;-65
2022/06/18 05:05:10;;;;;;;2.40;2.20;;;20.00;63.80;;;;;;4969863;28;20188;-64
2022/06/18 05:07:36;;;;;;;1.90;1.80;;;20.10;63.20;;;;;;4972438;28;20205;-65
2022/06/18 05:10:02;;;;;;;3.67;2.27;;;20.30;63.10;;;;;;4974623;28;20207;-65
2022/06/18 05:12:27;;;;;;;4.93;1.87;;;20.30;63.10;;;;;;4972923;28;20216;-64
2022/06/18 05:14:53;;;;;;;2.87;1.80;;;20.30;63.10;;;;;;4977289;28;20204;-63
2022/06/18 05:17:23;;;;;;;3.03;2.13;;;20.40;63.20;;;;;;4967188;28;20636;-64
2022/06/18 05:19:49;;;;;;;2.67;2.47;;;20.40;63.10;;;;;;4976963;28;20197;-64
2022/06/18 05:22:15;;;;;;;6.47;2.60;;;20.50;62.90;;;;;;4971586;28;20677;-64
2022/06/18 05:24:40;;;;;;;2.50;1.77;;;20.50;62.90;;;;;;4974113;28;20186;-64
2022/06/18 05:27:08;;;;;;;2.43;2.00;;;20.60;62.90;;;;;;4973912;28;20248;-64
2022/06/18 05:29:34;;;;;;;1.87;1.77;;;20.60;62.80;;;;;;4974851;28;20185;-64
2022/06/18 05:31:59;;;;;;;4.53;1.90;;;20.70;62.60;;;;;;4973710;28;20569;-65
2022/06/18 05:34:25;;;;;;;2.43;2.10;;;20.70;62.90;;;;;;4972582;28;20173;-64
2022/06/18 05:36:50;;;;;;;2.40;1.73;;;20.80;62.90;;;;;;4972823;28;20315;-66
2022/06/18 05:39:19;;;;;;;2.37;1.80;;;20.90;62.80;;;;;;4972765;28;20181;-66
2022/06/18 05:41:45;;;;;;;2.97;2.03;;;20.90;62.70;;;;;;4973784;28;20197;-64
2022/06/18 05:44:10;;;;;;;2.77;2.37;;;21.00;62.80;;;;;;4972532;28;20180;-64
2022/06/18 05:46:37;;;;;;;2.50;2.17;;;21.10;62.60;;;;;;4964483;28;20201;-65
2022/06/18 05:49:03;;;;;;;1.97;1.87;;;21.20;62.60;;;;;;4966569;28;20240;-64
2022/06/18 05:51:28;;;;;;;2.10;1.90;;;21.30;62.30;;;;;;4964160;28;20193;-64
2022/06/18 05:53:54;;;;;;;2.77;2.57;;;21.40;62.30;;;;;;4966475;28;20193;-64
2022/06/18 05:56:19;;;;;;;2.50;2.20;;;21.50;62.60;;;;;;4965832;28;20317;-64
2022/06/18 05:58:45;;;;;;;3.07;2.33;;;21.60;61.90;;;;;;4965071;28;20198;-63
2022/06/18 06:01:10;;;;;;;2.27;2.07;;;21.70;61.80;;;;;;4965874;28;20249;-63
2022/06/18 06:03:36;;;;;;;2.57;2.33;;;21.80;61.40;;;;;;4964133;28;20205;-64
2022/06/18 06:06:02;;;;;;;2.87;2.13;;;21.90;61.60;;;;;;4965944;28;20205;-64
2022/06/18 06:08:28;;;;;;;2.47;2.30;;;22.00;61.20;;;;;;4963961;28;20212;-64
2022/06/18 06:13:37;;;;;;;2.13;1.80;;;22.20;61.20;;;;;;4963389;28;20212;-64
2022/06/18 06:16:03;;;;;;;4.80;2.50;;;22.30;60.60;;;;;;4965416;28;20197;-63
2022/06/18 06:18:30;;;;;;;3.17;2.87;;;22.40;60.10;;;;;;4964278;28;20316;-64
2022/06/18 06:20:57;;;;;;;3.22;2.60;;;22.50;60.40;;;;;;4965872;28;20257;-64
2022/06/18 06:23:23;;;;;;;3.20;2.90;;;22.60;60.50;;;;;;4964065;28;20599;-64
2022/06/18 06:25:49;;;;;;;4.57;2.97;;;22.60;60.00;;;;;;4966037;28;20961;-64
2022/06/18 06:28:18;;;;;;;3.42;2.42;;;22.70;60.10;;;;;;4964242;28;20214;-64
2022/06/18 06:30:44;;;;;;;2.03;1.92;;;22.80;59.80;;;;;;4965747;28;20197;-64
2022/06/18 06:33:10;;;;;;;2.90;2.53;;;22.90;59.50;;;;;;4964300;28;20211;-64
2022/06/18 06:35:35;;;;;;;2.72;2.53;;;23.10;59.40;;;;;;4965605;28;20197;-64
2022/06/18 06:38:02;;;;;;;3.23;2.63;;;23.20;59.60;;;;;;4963887;28;20755;-64
2022/06/18 06:40:29;;;;;;;4.63;3.30;;;23.30;59.20;;;;;;4965911;28;20194;-65
2022/06/18 06:42:58;;;;;;;5.22;2.72;;;23.40;58.70;;;;;;4963988;28;20285;-64
2022/06/18 06:45:27;;;;;;;3.25;2.78;;;23.50;58.10;;;;;;4965734;28;20699;-64
2022/06/18 06:47:52;;;;;;;4.13;2.50;;;23.50;58.40;;;;;;4964160;28;20265;-64
2022/06/18 06:50:20;;;;;;;2.80;2.50;;;23.60;58.00;;;;;;4965744;28;20197;-64
2022/06/18 06:52:48;;;;;;;5.70;2.58;;;23.70;58.70;;;;;;4963990;28;20218;-64
2022/06/18 06:58:03;;;;;;;4.93;2.83;;;23.80;58.20;;;;;;4962682;28;20217;-64
2022/06/18 07:00:31;;;;;;;3.22;2.95;;;23.90;58.40;;;;;;4965201;28;20759;-64
2022/06/18 07:02:56;;;;;;;3.42;2.92;;;23.90;58.30;;;;;;4964031;28;20225;-64
2022/06/18 07:05:22;;;;;;;3.63;3.30;;;24.00;58.10;;;;;;4965714;28;20224;-64
2022/06/18 07:07:47;;;;;;;3.85;2.55;;;24.10;57.50;;;;;;4965021;28;20198;-64
2022/06/18 07:10:13;;;;;;;2.88;2.58;;;24.10;58.40;;;;;;4968984;28;20670;-64
2022/06/18 07:12:39;;;;;;;4.03;3.05;;;24.20;58.20;;;;;;4966923;28;20212;-64
2022/06/18 07:15:06;;;;;;;2.58;2.38;;;24.30;57.50;;;;;;4968676;28;20198;-64
2022/06/18 07:17:33;;;;;;;2.65;2.35;;;24.40;57.60;;;;;;4966605;28;20219;-64
2022/06/18 07:19:58;;;;;;;3.55;2.58;;;24.50;57.30;;;;;;4968804;28;20195;-64
2022/06/18 07:22:25;;;;;;;3.03;2.80;;;24.60;57.60;;;;;;4966868;28;20200;-64
2022/06/18 07:24:50;;;;;;;2.95;2.75;;;24.70;57.00;;;;;;4969036;28;20190;-64
2022/06/18 07:27:16;;;;;;;2.45;2.20;;;24.80;57.00;;;;;;4966319;28;20203;-65
2022/06/18 07:29:41;;;;;;;2.67;2.47;;;24.90;57.10;;;;;;4968138;28;20662;-64
2022/06/18 07:32:12;;;;;;;3.47;2.50;;;24.90;56.80;;;;;;4966177;28;20214;-65
2022/06/18 07:34:37;;;;;;;2.75;2.35;;;25.00;57.20;;;;;;4968861;28;20188;-64
2022/06/18 07:37:04;;;;;;;3.55;2.33;;;25.00;57.20;;;;;;4966911;28;20218;-65
2022/06/18 07:39:29;;;;;;;3.30;2.05;;;25.20;56.10;;;;;;4968366;28;20733;-64
2022/06/18 07:41:55;;;;;;;3.63;2.50;;;25.30;55.70;;;;;;4966431;28;20564;-64
2022/06/18 07:44:22;;;;;;;2.40;2.17;;;25.40;55.70;;;;;;4968559;28;20191;-64
2022/06/18 07:46:48;;;;;;;3.05;2.35;;;25.50;56.40;;;;;;4966924;28;20196;-64
2022/06/18 07:49:15;;;;;;;2.75;2.42;;;25.50;56.30;;;;;;4968290;28;20678;-64
2022/06/18 07:51:41;;;;;;;3.58;1.98;;;25.50;56.00;;;;;;4966241;28;20606;-64
2022/06/18 07:54:08;;;;;;;4.28;2.67;;;25.60;56.00;;;;;;4968070;28;20654;-64
2022/06/18 07:56:33;;;;;;;5.65;2.40;;;25.70;56.00;;;;;;4966188;28;20329;-64
2022/06/18 07:58:59;;;;;;;3.15;1.92;;;25.80;55.90;;;;;;4968076;28;20275;-64
2022/06/18 08:01:24;;;;;;;4.57;1.67;;;25.80;56.10;;;;;;4965712;28;20234;-64
2022/06/18 08:03:50;;;;;;;1.95;1.70;;;25.90;55.40;;;;;;4968438;28;20762;-64
2022/06/18 08:06:16;;;;;;;1.73;1.63;;;26.10;54.60;;;;;;4968361;28;20237;-64
2022/06/18 08:08:42;;;;;;;3.25;1.85;;;26.20;54.30;;;;;;4966421;28;20298;-64
2022/06/18 08:11:13;;;;;;;1.88;1.77;;;26.30;54.40;;;;;;4967595;28;20212;-64
2022/06/18 08:13:39;;;;;;;3.78;1.65;;;26.30;54.50;;;;;;4940172;28;20200;-65
2022/06/18 08:16:06;;;;;;;2.00;1.83;;;26.40;54.50;;;;;;4967396;28;20207;-66
2022/06/18 08:18:32;;;;;;;2.00;1.85;;;26.40;54.90;;;;;;4966213;28;20210;-65
2022/06/18 08:21:03;;;;;;;2.15;2.03;;;26.50;55.10;;;;;;4967813;28;20196;-65
2022/06/18 08:23:29;;;;;;;2.33;2.00;;;26.60;54.50;;;;;;4970369;28;20564;-65
2022/06/18 08:25:54;;;;;;;2.42;1.50;;;26.70;54.60;;;;;;4963819;28;20304;-64
2022/06/18 08:28:20;;;;;;;2.28;1.95;;;26.70;54.70;;;;;;4965314;28;20221;-65
2022/06/18 08:30:46;;;;;;;1.95;1.83;;;26.70;54.70;;;;;;4967432;28;20241;-64
2022/06/18 08:33:11;;;;;;;2.50;2.35;;;26.70;55.30;;;;;;4965774;28;20365;-64
2022/06/18 08:35:38;;;;;;;2.60;2.35;;;26.80;54.80;;;;;;4967561;28;20197;-64
2022/06/18 08:38:05;;;;;;;4.13;2.10;;;27.00;54.20;;;;;;4965560;28;20407;-61
2022/06/18 08:41:01;;;;;;;4.13;2.17;;;27.10;54.10;;;;;;4967395;28;20285;-61
2022/06/18 08:43:58;;;;;;;2.70;2.33;;;27.20;54.00;;;;;;4962552;28;20944;-67
2022/06/18 08:46:43;;;;;;;5.80;1.90;;;27.20;54.10;;;;;;4946226;28;20213;-66
2022/06/18 08:49:28;;;;;;;2.50;2.10;;;27.30;54.80;;;;;;4967086;28;20215;-66
2022/06/18 08:52:00;;;;;;;2.03;1.63;;;27.30;54.40;;;;;;4950917;28;20547;-65
2022/06/18 08:54:40;;;;;;;2.35;2.22;;;27.50;54.70;;;;;;4967030;28;20185;-65
2022/06/18 08:57:34;;;;;;;1.98;1.73;;;27.60;55.00;;;;;;4951687;28;20227;-61
2022/06/18 09:00:14;;;;;;;2.15;1.95;;;27.70;53.90;;;;;;4964883;28;20260;-61
2022/06/18 09:03:34;;;;;;;4.55;1.90;;;27.80;53.90;;;;;;4965282;28;20289;-61
2022/06/18 09:06:31;;;;;;;2.08;1.75;;;27.80;54.30;;;;;;4949075;28;20273;-61
2022/06/18 09:09:15;;;;;;;2.10;1.90;;;27.90;53.90;;;;;;4956611;28;20200;-61
2022/06/18 09:12:16;;;;;;;1.60;1.50;;;27.90;53.50;;;;;;4964835;28;20777;-62
2022/06/18 09:15:03;;;;;;;2.97;1.73;;;28.00;53.90;;;;;;4961169;28;20277;-61
2022/06/18 09:18:25;;;;;;;2.72;1.65;;;28.00;53.80;;;;;;4962367;28;20223;-61
2022/06/18 09:20:55;;;;;;;5.55;2.00;;;28.00;54.30;;;;;;4914648;29;20285;-62
2022/06/18 09:23:49;;;;;;;2.20;2.00;;;28.20;53.70;;;;;;4957492;28;20217;-63
2022/06/18 09:26:25;;;;;;;2.00;1.88;;;28.20;53.60;;;;;;4966654;28;20199;-60
2022/06/18 09:29:02;;;;;;;3.25;2.13;;;28.20;53.30;;;;;;4966773;28;20189;-61
2022/06/18 09:31:52;;;;;;;2.28;1.88;;;28.40;53.60;;;;;;4950018;28;20296;-60
2022/06/18 09:34:33;;;;;;;3.88;2.08;;;28.60;53.10;;;;;;4966892;28;20185;-60
2022/06/18 09:37:10;;;;;;;2.33;1.90;;;28.70;52.60;;;;;;4954628;28;20220;-60
2022/06/18 09:39:48;;;;;;;5.72;2.50;;;28.80;53.00;;;;;;4958160;28;20220;-61
2022/06/18 09:42:22;;;;;;;3.60;1.80;;;28.90;52.40;;;;;;4952306;28;20209;-60
2022/06/18 09:44:57;;;;;;;2.38;2.10;;;28.90;52.20;;;;;;4948424;28;20197;-60
2022/06/18 09:47:41;;;;;;;3.03;2.10;;;29.00;52.50;;;;;;4953352;28;20291;-61
2022/06/18 09:50:16;;;;;;;5.50;2.38;;;29.10;52.50;;;;;;4949408;28;20198;-61
2022/06/18 09:52:43;;;;;;;2.63;2.28;;;29.10;52.60;;;;;;4964205;28;20224;-65
2022/06/18 09:55:23;;;;;;;3.53;2.20;;;29.20;52.20;;;;;;4965751;28;20309;-65
2022/06/18 09:57:53;;;;;;;2.58;2.08;;;29.20;52.70;;;;;;4956939;28;20575;-65
2022/06/18 10:00:23;;;;;;;3.88;1.90;;;29.30;53.20;;;;;;4949609;28;20221;-64
2022/06/18 10:03:04;;;;;;;2.33;1.85;;;29.60;52.60;;;;;;4972523;28;20239;-64
2022/06/18 10:08:30;;;;;;;2.03;1.92;;;29.70;52.40;;;;;;4967391;28;20216;-66
2022/06/18 10:11:07;;;;;;;2.72;2.53;;;29.70;52.20;;;;;;4960143;28;20653;-73
2022/06/18 10:13:42;;;;;;;1.98;1.88;;;29.60;52.70;;;;;;4962700;28;20209;-65
2022/06/18 10:16:16;;;;;;;3.28;2.65;;;29.70;53.00;;;;;;4952699;28;20209;-65
2022/06/18 10:19:01;;;;;;;3.65;2.28;;;29.80;52.60;;;;;;4964261;28;20201;-66
2022/06/18 10:21:52;;;;;;;3.20;2.33;;;29.90;53.30;;;;;;4946633;28;20703;-71
2022/06/18 10:24:23;;;;;;;2.42;2.20;;;30.10;53.00;;;;;;4966172;28;20807;-71
2022/06/18 10:27:00;;;;;;;2.67;2.25;;;30.10;52.80;;;;;;4964305;28;20202;-70
2022/06/18 10:29:39;;;;;;;5.45;2.75;;;30.30;52.50;;;;;;4965771;28;20193;-69
2022/06/18 10:32:29;;;;;;;2.25;1.98;;;30.30;52.30;;;;;;4950606;28;20296;-68
2022/06/18 10:35:21;;;;;;;3.25;2.08;;;30.30;52.10;;;;;;4965813;28;20547;-70
2022/06/18 10:38:08;;;;;;;6.20;2.58;;;30.20;52.70;;;;;;4956128;28;20225;-68
2022/06/18 10:41:09;;;;;;;5.95;3.40;;;30.30;52.00;;;;;;4947637;28;20746;-68
2022/06/18 10:44:05;;;;;;;3.08;2.83;;;30.20;51.90;;;;;;4968704;28;20185;-63
2022/06/18 10:46:33;;;;;;;3.38;2.35;;;30.20;52.00;;;;;;4958369;28;20582;-64
2022/06/18 10:49:05;;;;;;;3.30;2.20;;;30.40;52.30;;;;;;4969140;28;20205;-65
2022/06/18 10:51:46;;;;;;;3.38;2.63;;;30.50;52.10;;;;;;4965519;28;20759;-60
2022/06/18 10:54:13;;;;;;;3.28;2.47;;;30.50;51.80;;;;;;4967125;28;20206;-62
2022/06/18 10:56:48;;;;;;;5.68;2.20;;;30.60;51.40;;;;;;4952497;28;20210;-60
2022/06/18 10:59:14;;;;;;;3.28;2.42;;;30.70;50.60;;;;;;4968080;28;20204;-62
2022/06/18 11:01:45;;;;;;;10.00;8.45;;;30.80;50.60;;;;;;4967102;28;20217;-60
2022/06/18 11:04:29;;;;;;;3.05;2.60;;;31.10;50.60;;;;;;4980380;28;20189;-61
2022/06/18 11:07:05;;;;;;;2.75;2.25;;;31.60;49.40;;;;;;4966328;28;20195;-60
2022/06/18 11:09:33;;;;;;;4.63;1.95;;;32.00;49.10;;;;;;4959094;28;20652;-62
2022/06/18 11:12:07;;;;;;;3.70;2.92;;;32.50;48.30;;;;;;4967446;28;20210;-61
2022/06/18 11:14:43;;;;;;;3.05;2.50;;;32.70;47.40;;;;;;4955892;28;20280;-62
2022/06/18 11:17:29;;;;;;;5.47;2.78;;;33.10;46.60;;;;;;4962982;28;20280;-62
2022/06/18 11:20:06;;;;;;;6.55;2.78;;;33.50;46.40;;;;;;4968627;28;20783;-60
2022/06/18 11:22:31;;;;;;;5.88;2.60;;;34.10;45.40;;;;;;4965844;28;20231;-74
2022/06/18 11:25:00;;;;;;;8.82;2.65;;;34.90;44.40;;;;;;4970978;28;21016;-66
2022/06/18 11:27:47;;;;;;;5.40;2.17;;;35.00;43.00;;;;;;4949637;28;20201;-67
2022/06/18 11:30:30;;;;;;;6.18;2.60;;;34.70;43.40;;;;;;4964754;28;20274;-68
2022/06/18 11:32:56;;;;;;;6.22;2.88;;;34.40;43.00;;;;;;4956091;28;20209;-70
2022/06/18 11:35:25;;;;;;;6.40;3.00;;;34.80;42.50;;;;;;4968525;28;20254;-74
2022/06/18 11:38:03;;;;;;;4.28;2.72;;;35.30;42.20;;;;;;4973328;28;20265;-75
2022/06/18 11:40:29;;;;;;;4.30;2.30;;;36.30;39.90;;;;;;4972053;28;20169;-75
2022/06/18 11:43:00;;;;;;;5.57;2.88;;;36.50;40.00;;;;;;4972640;28;20205;-73
2022/06/18 11:45:42;;;;;;;6.30;3.38;;;36.70;39.60;;;;;;4977581;28;20698;-76
2022/06/18 11:48:38;;;;;;;9.32;3.20;;;36.40;39.70;;;;;;4975880;28;20200;-76
2022/06/18 11:51:13;;;;;;;7.50;3.40;;;36.00;40.20;;;;;;4973760;28;20664;-76
2022/06/18 11:53:47;;;;;;;7.60;3.45;;;36.20;40.20;;;;;;4978018;28;20254;-73
2022/06/18 11:56:43;;;;;;;6.35;2.80;;;37.20;39.00;;;;;;4975995;28;20224;-74
2022/06/18 11:59:22;;;;;;;3.60;3.30;;;37.70;38.60;;;;;;4967672;28;20244;-74
2022/06/18 12:01:52;;;;;;;8.25;3.42;;;38.20;38.40;;;;;;4969587;28;20229;-72
2022/06/18 12:04:27;;;;;;;5.20;3.25;;;38.00;37.80;;;;;;4975839;28;20545;-73
2022/06/18 12:07:15;;;;;;;6.13;3.00;;;37.80;38.00;;;;;;4971659;28;20264;-73
2022/06/18 12:09:42;;;;;;;6.28;2.85;;;37.70;38.30;;;;;;4952564;28;20225;-73
2022/06/18 12:12:29;;;;;;;4.75;3.10;;;38.50;37.60;;;;;;4957080;28;20774;-72
2022/06/18 12:15:04;;;;;;;4.70;2.45;;;39.10;36.80;;;;;;4966150;28;20644;-72
2022/06/18 12:17:44;;;;;;;9.70;3.45;;;39.90;35.50;;;;;;4958849;28;20220;-74
2022/06/18 12:20:24;;;;;;;5.13;2.75;;;39.30;35.50;;;;;;4968553;28;20189;-74
2022/06/18 12:23:35;;;;;;;3.45;3.10;;;39.00;36.80;;;;;;4963373;28;20193;-75
2022/06/18 12:26:15;;;;;;;5.28;2.92;;;39.10;36.00;;;;;;4962106;28;20243;-76
2022/06/18 12:29:11;;;;;;;10.63;3.30;;;38.90;36.90;;;;;;4948831;29;20182;-75
2022/06/18 12:32:00;;;;;;;5.85;3.10;;;38.70;36.70;;;;;;4959092;28;20277;-77
2022/06/18 12:35:05;;;;;;;9.32;3.70;;;39.60;35.70;;;;;;4951433;28;20224;-76
2022/06/18 12:37:57;;;;;;;11.75;3.40;;;39.90;35.10;;;;;;4952930;28;20265;-74
2022/06/18 12:40:40;;;;;;;8.90;3.95;;;38.90;35.60;;;;;;4957598;28;20204;-75
2022/06/18 12:43:10;;;;;;;8.00;3.88;;;38.70;35.70;;;;;;4954532;28;20543;-74
2022/06/18 12:45:56;;;;;;;8.88;3.42;;;38.70;36.00;;;;;;4961708;28;20210;-73
2022/06/18 12:48:45;;;;;;;5.93;3.28;;;38.40;36.50;;;;;;4960537;28;20236;-74
2022/06/18 12:51:28;;;;;;;7.88;3.33;;;38.00;36.60;;;;;;4963940;28;20197;-75
2022/06/18 12:54:15;;;;;;;9.05;4.40;;;38.20;36.30;;;;;;4948399;29;20199;-76
2022/06/18 12:57:16;;;;;;;9.60;3.75;;;38.40;36.10;;;;;;4955238;28;20205;-75
2022/06/18 13:00:03;;;;;;;9.27;3.60;;;38.50;36.00;;;;;;4961299;28;20198;-77
2022/06/18 13:02:37;;;;;;;10.95;3.97;;;38.80;35.50;;;;;;4958754;28;20244;-73
2022/06/18 13:05:29;;;;;;;11.85;4.30;;;38.30;36.00;;;;;;4964732;28;20200;-73
2022/06/18 13:08:23;;;;;;;8.00;3.65;;;37.60;37.10;;;;;;4948384;28;20482;-73
2022/06/18 13:11:01;;;;;;;8.70;3.47;;;37.70;37.00;;;;;;4961131;28;20217;-73
2022/06/18 13:13:38;;;;;;;6.05;3.28;;;37.80;36.70;;;;;;4947707;29;20724;-74
2022/06/18 13:16:33;;;;;;;8.43;4.20;;;37.90;36.60;;;;;;4964554;28;20205;-74
2022/06/18 13:19:19;;;;;;;6.97;3.20;;;39.00;36.30;;;;;;4965391;28;20188;-75
2022/06/18 13:21:46;;;;;;;7.97;3.97;;;40.10;34.90;;;;;;4967255;28;20282;-73
2022/06/18 13:30:51;;;;;;;11.63;3.75;;;40.70;34.10;;;;;;4947289;28;20213;-75
2022/06/18 13:33:40;;;;;;;9.27;3.20;;;40.30;33.70;;;;;;4914619;29;20192;-73